createdAt,value
2023-03-19T00:02:17.642Z,3.27
2023-03-19T00:04:35.577Z,3.21
2023-03-19T00:07:01.901Z,3.17
2023-03-19T00:09:28.244Z,3.14
2023-03-19T00:11:54.624Z,3.10
2023-03-19T00:14:21.010Z,3.01
2023-03-19T00:16:47.411Z,2.97
2023-03-19T00:19:13.762Z,2.88
2023-03-19T00:21:40.128Z,2.84
2023-03-19T00:24:06.480Z,2.74
2023-03-19T00:26:32.834Z,2.69
2023-03-19T00:28:59.173Z,2.88
2023-03-19T00:31:25.529Z,3.05
2023-03-19T00:33:51.860Z,2.98
2023-03-19T00:36:18.281Z,2.84
2023-03-19T00:38:44.607Z,2.80
2023-03-19T00:41:11.017Z,2.78
2023-03-19T00:43:37.364Z,2.77
2023-03-19T00:46:03.711Z,2.77
2023-03-19T00:48:30.063Z,2.73
2023-03-19T00:50:56.380Z,2.75
2023-03-19T00:53:22.764Z,2.83
2023-03-19T00:55:49.092Z,2.69
2023-03-19T00:58:15.470Z,2.58
2023-03-19T01:00:41.792Z,2.47
2023-03-19T01:03:08.158Z,2.28
2023-03-19T01:05:34.757Z,2.14
2023-03-19T01:08:00.840Z,2.08
2023-03-19T01:10:27.164Z,2.04
2023-03-19T01:12:53.544Z,2.08
2023-03-19T01:15:19.854Z,2.01
2023-03-19T01:17:46.241Z,1.83
2023-03-19T01:20:12.549Z,1.75
2023-03-19T01:22:38.948Z,1.69
2023-03-19T01:25:05.254Z,1.61
2023-03-19T01:27:31.631Z,1.52
2023-03-19T01:29:57.955Z,1.55
2023-03-19T01:32:24.382Z,1.46
2023-03-19T01:34:50.715Z,1.50
2023-03-19T01:37:17.054Z,1.59
2023-03-19T01:39:43.373Z,1.67
2023-03-19T01:42:09.718Z,1.71
2023-03-19T01:44:36.121Z,1.67
2023-03-19T01:47:02.477Z,1.73
2023-03-19T01:49:28.832Z,1.60
2023-03-19T01:51:55.222Z,1.43
2023-03-19T01:54:21.541Z,1.30
2023-03-19T01:56:47.948Z,1.33
2023-03-19T01:59:14.258Z,1.23
2023-03-19T02:01:40.666Z,1.30
2023-03-19T02:04:06.999Z,1.41
2023-03-19T02:06:33.320Z,1.31
2023-03-19T02:08:59.694Z,1.28
2023-03-19T02:11:26.021Z,1.28
2023-03-19T02:13:52.367Z,1.29
2023-03-19T02:16:18.719Z,1.34
2023-03-19T02:18:45.016Z,1.45
2023-03-19T02:21:11.363Z,1.63
2023-03-19T02:23:37.803Z,1.70
2023-03-19T02:26:04.129Z,1.76
2023-03-19T02:28:30.490Z,1.83
2023-03-19T02:30:56.869Z,1.85
2023-03-19T02:33:23.225Z,1.83
2023-03-19T02:35:49.574Z,1.77
2023-03-19T02:38:15.946Z,1.60
2023-03-19T02:40:42.295Z,1.53
2023-03-19T02:43:08.657Z,1.69
2023-03-19T02:45:35.080Z,1.90
2023-03-19T02:48:01.383Z,1.80
2023-03-19T02:50:27.769Z,2.23
2023-03-19T02:52:54.129Z,2.40
2023-03-19T02:55:20.457Z,2.33
2023-03-19T02:57:46.780Z,2.34
2023-03-19T03:00:13.169Z,2.17
2023-03-19T03:02:39.500Z,2.31
2023-03-19T03:05:05.849Z,2.66
2023-03-19T03:07:32.242Z,2.37
2023-03-19T03:09:58.579Z,2.14
2023-03-19T03:12:24.938Z,1.94
2023-03-19T03:14:51.322Z,1.77
2023-03-19T03:17:17.678Z,1.61
2023-03-19T03:19:44.083Z,1.71
2023-03-19T03:22:10.416Z,1.59
2023-03-19T03:24:36.796Z,1.49
2023-03-19T03:27:03.107Z,1.37
2023-03-19T03:29:29.475Z,1.33
2023-03-19T03:31:55.894Z,1.12
2023-03-19T03:34:22.228Z,1.22
2023-03-19T03:36:48.648Z,1.08
2023-03-19T03:39:14.946Z,0.88
2023-03-19T03:41:41.301Z,0.76
2023-03-19T03:44:07.655Z,0.76
2023-03-19T03:46:33.985Z,0.83
2023-03-19T03:49:00.342Z,0.93
2023-03-19T03:51:26.660Z,0.87
2023-03-19T03:53:53.012Z,0.67
2023-03-19T03:56:19.371Z,0.66
2023-03-19T03:58:45.765Z,0.57
2023-03-19T04:01:12.080Z,0.65
2023-03-19T04:03:38.476Z,0.58
2023-03-19T04:06:04.747Z,0.55
2023-03-19T04:08:31.189Z,0.64
2023-03-19T04:10:57.557Z,0.78
2023-03-19T04:13:23.924Z,1.00
2023-03-19T04:15:50.234Z,1.59
2023-03-19T04:18:16.623Z,1.78
2023-03-19T04:20:43.016Z,1.78
2023-03-19T04:23:09.364Z,1.52
2023-03-19T04:25:35.735Z,1.64
2023-03-19T04:28:02.132Z,1.64
2023-03-19T04:30:28.492Z,1.49
2023-03-19T04:32:54.895Z,1.60
2023-03-19T04:35:21.191Z,1.46
2023-03-19T04:37:47.532Z,1.35
2023-03-19T04:40:13.900Z,1.34
2023-03-19T04:42:40.243Z,1.36
2023-03-19T04:45:06.600Z,1.55
2023-03-19T04:47:32.949Z,1.78
2023-03-19T04:49:59.276Z,1.75
2023-03-19T04:52:25.664Z,1.89
2023-03-19T04:54:52.039Z,2.24
2023-03-19T04:57:18.375Z,2.32
2023-03-19T04:59:44.729Z,2.65
2023-03-19T05:02:11.118Z,2.83
2023-03-19T05:04:37.442Z,2.98
2023-03-19T05:07:03.777Z,3.05
2023-03-19T05:09:30.091Z,3.22
2023-03-19T05:11:56.440Z,3.47
2023-03-19T05:14:22.752Z,3.89
2023-03-19T05:16:49.090Z,4.16
2023-03-19T05:19:15.450Z,4.20
2023-03-19T05:21:41.831Z,4.36
2023-03-19T05:24:08.569Z,4.30
2023-03-19T05:26:34.966Z,4.59
2023-03-19T05:29:01.344Z,4.60
2023-03-19T05:31:27.680Z,4.63
2023-03-19T05:33:54.044Z,4.46
2023-03-19T05:36:20.456Z,4.51
2023-03-19T05:38:47.189Z,4.74
2023-03-19T05:41:13.574Z,4.94
2023-03-19T05:43:39.882Z,5.11
2023-03-19T05:46:06.321Z,4.93
2023-03-19T05:48:32.630Z,4.84
2023-03-19T05:50:59.002Z,4.51
2023-03-19T05:53:25.368Z,4.49
2023-03-19T05:55:51.713Z,5.00
2023-03-19T05:58:18.039Z,5.25
2023-03-19T06:00:44.434Z,5.51
2023-03-19T06:03:10.944Z,5.57
2023-03-19T06:05:37.232Z,5.59
2023-03-19T06:08:03.578Z,5.37
2023-03-19T06:10:30.012Z,5.65
2023-03-19T06:12:56.276Z,5.95
2023-03-19T06:15:22.679Z,6.36
2023-03-19T06:17:49.004Z,6.70
2023-03-19T06:20:15.402Z,6.84
2023-03-19T06:22:41.788Z,6.90
2023-03-19T06:25:08.133Z,7.03
2023-03-19T06:27:34.458Z,6.93
2023-03-19T06:30:00.840Z,6.64
2023-03-19T06:32:27.231Z,7.12
2023-03-19T06:34:53.571Z,7.55
2023-03-19T06:37:19.953Z,7.51
2023-03-19T06:39:46.274Z,7.41
2023-03-19T06:42:12.664Z,7.67
2023-03-19T06:44:39.019Z,8.23
2023-03-19T06:47:05.383Z,8.19
2023-03-19T06:49:31.829Z,8.11
2023-03-19T06:51:58.145Z,8.76
2023-03-19T06:54:24.527Z,9.15
2023-03-19T06:56:50.922Z,8.19
2023-03-19T06:59:17.337Z,8.05
2023-03-19T07:01:43.724Z,8.60
2023-03-19T07:04:10.173Z,9.10
2023-03-19T07:06:36.466Z,9.04
2023-03-19T07:09:02.809Z,8.94
2023-03-19T07:11:29.130Z,8.77
2023-03-19T07:13:55.507Z,9.49
2023-03-19T07:16:21.889Z,10.40
2023-03-19T07:18:48.233Z,10.57
2023-03-19T07:21:14.560Z,11.01
2023-03-19T07:23:40.953Z,10.61
2023-03-19T07:26:07.317Z,10.36
2023-03-19T07:28:35.812Z,10.30
2023-03-19T07:31:00.094Z,10.17
2023-03-19T07:33:26.400Z,10.48
2023-03-19T07:35:52.895Z,10.53
2023-03-19T07:38:19.194Z,10.29
2023-03-19T07:40:59.063Z,10.75
2023-03-19T07:43:11.940Z,11.02
2023-03-19T07:45:38.317Z,10.86
2023-03-19T07:48:04.663Z,11.61
2023-03-19T07:50:31.002Z,11.53
2023-03-19T07:52:57.372Z,11.81
2023-03-19T07:55:23.749Z,11.62
2023-03-19T07:57:50.129Z,11.23
2023-03-19T08:00:16.469Z,10.93
2023-03-19T08:02:42.919Z,11.16
2023-03-19T08:05:09.172Z,11.24
2023-03-19T08:07:35.739Z,11.57
2023-03-19T08:10:02.157Z,11.59
2023-03-19T08:12:28.553Z,12.05
2023-03-19T08:14:54.902Z,12.02
2023-03-19T08:17:21.237Z,11.61
2023-03-19T08:19:47.618Z,11.39
2023-03-19T08:22:13.953Z,12.17
2023-03-19T08:24:40.357Z,12.70
2023-03-19T08:27:06.797Z,11.97
2023-03-19T08:29:33.169Z,12.24
2023-03-19T08:31:59.492Z,12.84
2023-03-19T08:34:25.891Z,12.68
2023-03-19T08:36:52.234Z,12.76
2023-03-19T08:39:18.623Z,12.88
2023-03-19T08:41:44.965Z,13.05
2023-03-19T08:44:11.396Z,13.32
2023-03-19T08:46:37.852Z,13.55
2023-03-19T08:49:04.217Z,13.68
2023-03-19T08:51:30.574Z,13.85
2023-03-19T08:53:57.116Z,13.87
2023-03-19T08:56:23.428Z,14.00
2023-03-19T08:58:49.828Z,14.45
2023-03-19T09:01:16.284Z,14.07
2023-03-19T09:03:42.678Z,13.76
2023-03-19T09:06:09.000Z,14.46
2023-03-19T09:08:35.347Z,14.88
2023-03-19T09:11:01.727Z,15.08
2023-03-19T09:13:28.129Z,14.68
2023-03-19T09:15:54.589Z,14.76
2023-03-19T09:18:20.880Z,15.33
2023-03-19T09:20:47.245Z,15.68
2023-03-19T09:23:13.602Z,15.09
2023-03-19T09:25:39.936Z,15.29
2023-03-19T09:28:06.335Z,15.53
2023-03-19T09:30:32.674Z,15.58
2023-03-19T09:32:59.106Z,15.99
2023-03-19T09:35:25.410Z,16.23
2023-03-19T09:37:52.183Z,15.97
2023-03-19T09:40:18.291Z,16.12
2023-03-19T09:42:44.691Z,15.47
2023-03-19T09:45:11.032Z,15.91
2023-03-19T09:47:37.478Z,16.34
2023-03-19T09:50:03.828Z,16.50
2023-03-19T09:52:30.199Z,16.75
2023-03-19T09:54:56.566Z,16.95
2023-03-19T09:57:22.924Z,17.33
2023-03-19T09:59:49.601Z,16.84
2023-03-19T10:02:15.974Z,16.92
2023-03-19T10:04:42.353Z,17.42
2023-03-19T10:07:08.753Z,17.20
2023-03-19T10:09:35.082Z,17.13
2023-03-19T10:12:01.884Z,16.87
2023-03-19T10:14:28.241Z,17.47
2023-03-19T10:16:54.643Z,17.46
2023-03-19T10:19:22.230Z,17.81
2023-03-19T10:21:47.385Z,18.49
2023-03-19T10:24:13.752Z,18.84
2023-03-19T10:26:40.102Z,18.94
2023-03-19T10:29:06.506Z,18.69
2023-03-19T10:31:32.944Z,18.64
2023-03-19T10:33:59.264Z,18.79
2023-03-19T10:36:25.676Z,19.05
2023-03-19T10:38:52.061Z,19.48
2023-03-19T10:41:18.397Z,19.24
2023-03-19T10:43:44.722Z,19.36
2023-03-19T10:46:11.173Z,19.39
2023-03-19T10:48:37.588Z,19.71
2023-03-19T10:51:04.040Z,19.71
2023-03-19T10:53:30.422Z,19.51
2023-03-19T10:55:56.766Z,19.19
2023-03-19T10:58:23.152Z,18.93
2023-03-19T11:00:49.575Z,19.75
2023-03-19T11:03:15.843Z,19.79
2023-03-19T11:05:42.223Z,19.58
2023-03-19T11:08:08.542Z,19.88
2023-03-19T11:10:34.902Z,20.56
2023-03-19T11:13:01.254Z,20.16
2023-03-19T11:15:27.622Z,20.24
2023-03-19T11:17:53.993Z,20.41
2023-03-19T11:20:20.351Z,20.85
2023-03-19T11:22:46.702Z,20.29
2023-03-19T11:25:13.093Z,20.22
2023-03-19T11:27:39.514Z,20.40
2023-03-19T11:30:05.887Z,20.87
2023-03-19T11:32:32.467Z,20.60
2023-03-19T11:34:58.651Z,20.31
2023-03-19T11:37:24.979Z,20.28
2023-03-19T11:39:51.391Z,19.87
2023-03-19T11:42:17.791Z,20.16
2023-03-19T11:44:44.183Z,20.26
2023-03-19T11:47:26.182Z,20.41
2023-03-19T11:49:36.904Z,21.07
2023-03-19T11:52:03.334Z,21.29
2023-03-19T11:54:29.820Z,20.71
2023-03-19T11:56:56.162Z,20.53
2023-03-19T11:59:22.565Z,20.42
2023-03-19T12:01:48.933Z,20.50
2023-03-19T12:04:15.359Z,20.64
2023-03-19T12:06:41.698Z,20.58
2023-03-19T12:09:08.071Z,19.52
2023-03-19T12:11:34.436Z,19.55
2023-03-19T12:14:00.919Z,20.01
2023-03-19T12:16:27.282Z,20.72
2023-03-19T12:18:53.634Z,20.92
2023-03-19T12:21:20.040Z,20.88
2023-03-19T12:23:46.428Z,20.67
2023-03-19T12:26:12.783Z,20.55
2023-03-19T12:28:39.171Z,20.98
2023-03-19T12:31:05.540Z,21.15
2023-03-19T12:33:31.859Z,21.10
2023-03-19T12:35:58.464Z,21.21
2023-03-19T12:38:24.747Z,21.21
2023-03-19T12:40:51.120Z,21.01
2023-03-19T12:43:17.480Z,20.72
2023-03-19T12:45:43.796Z,21.08
2023-03-19T12:48:10.205Z,21.15
2023-03-19T12:50:36.787Z,21.29
2023-03-19T12:53:02.901Z,21.42
2023-03-19T12:55:29.294Z,21.25
2023-03-19T12:57:55.682Z,21.20
2023-03-19T13:00:21.997Z,21.37
2023-03-19T13:02:48.508Z,21.24
2023-03-19T13:05:14.757Z,21.13
2023-03-19T13:07:41.150Z,21.17
2023-03-19T13:10:07.470Z,20.47
2023-03-19T13:12:33.811Z,19.66
2023-03-19T13:15:00.221Z,19.32
2023-03-19T13:17:26.568Z,19.11
2023-03-19T13:19:52.891Z,18.97
2023-03-19T13:22:19.229Z,18.73
2023-03-19T13:24:45.562Z,18.62
2023-03-19T13:27:11.925Z,18.58
2023-03-19T13:29:38.295Z,18.55
2023-03-19T13:32:04.706Z,18.44
2023-03-19T13:34:31.012Z,18.39
2023-03-19T13:36:57.453Z,18.18
2023-03-19T13:39:23.805Z,18.07
2023-03-19T13:41:50.164Z,18.16
2023-03-19T13:44:16.510Z,18.21
2023-03-19T13:46:42.907Z,18.14
2023-03-19T13:49:09.207Z,18.00
2023-03-19T13:51:35.658Z,17.90
2023-03-19T13:54:02.025Z,17.95
2023-03-19T13:56:30.367Z,17.83
2023-03-19T13:58:54.744Z,17.90
2023-03-19T14:01:21.598Z,17.97
2023-03-19T14:03:47.964Z,18.07
2023-03-19T14:06:14.356Z,18.08
2023-03-19T14:08:40.709Z,18.03
2023-03-19T14:11:07.870Z,18.15
2023-03-19T14:13:34.267Z,18.09
2023-03-19T14:16:00.618Z,18.13
2023-03-19T14:18:26.976Z,18.18
2023-03-19T14:20:54.335Z,18.26
2023-03-19T14:23:20.199Z,18.23
2023-03-19T14:25:47.995Z,18.06
2023-03-19T14:28:12.681Z,18.06
2023-03-19T14:30:39.048Z,18.10
2023-03-19T14:33:05.403Z,18.18
2023-03-19T14:35:31.808Z,18.11
2023-03-19T14:37:58.149Z,17.96
2023-03-19T14:40:24.532Z,17.85
2023-03-19T14:42:50.885Z,17.76
2023-03-19T14:45:17.245Z,17.66
2023-03-19T14:47:43.737Z,17.80
2023-03-19T14:50:10.139Z,17.93
2023-03-19T14:52:36.495Z,18.01
2023-03-19T14:55:02.918Z,18.03
2023-03-19T14:57:29.272Z,17.94
2023-03-19T14:59:55.665Z,17.92
2023-03-19T15:02:22.063Z,17.83
2023-03-19T15:04:48.506Z,17.87
2023-03-19T15:07:14.920Z,17.81
2023-03-19T15:09:41.303Z,17.77
2023-03-19T15:12:07.704Z,17.79
2023-03-19T15:14:34.072Z,17.67
2023-03-19T15:17:00.454Z,17.57
2023-03-19T15:19:26.825Z,17.57
2023-03-19T15:21:53.190Z,17.63
2023-03-19T15:24:19.719Z,17.54
2023-03-19T15:26:53.445Z,17.45
2023-03-19T15:29:19.802Z,17.47
2023-03-19T15:31:52.720Z,17.39
2023-03-19T15:34:12.663Z,17.29
2023-03-19T15:36:39.791Z,17.19
2023-03-19T15:39:06.204Z,17.10
2023-03-19T15:41:35.695Z,17.04
2023-03-19T15:44:02.047Z,17.00
2023-03-19T15:46:30.987Z,16.94
2023-03-19T15:48:58.543Z,16.91
2023-03-19T15:51:24.934Z,16.87
2023-03-19T15:53:51.347Z,16.78
2023-03-19T15:56:17.979Z,16.76
2023-03-19T15:58:47.923Z,16.77
2023-03-19T16:01:16.789Z,16.77
2023-03-19T16:03:43.055Z,16.77
2023-03-19T16:06:09.460Z,16.75
2023-03-19T16:08:35.850Z,16.67
2023-03-19T16:11:03.362Z,16.60
2023-03-19T16:13:30.691Z,16.53
2023-03-19T16:15:57.401Z,16.44
2023-03-19T16:18:23.805Z,16.39
2023-03-19T16:20:50.125Z,16.32
2023-03-19T16:23:16.538Z,16.29
2023-03-19T16:25:43.943Z,16.23
2023-03-19T16:28:10.288Z,16.13
2023-03-19T16:30:36.924Z,16.04
2023-03-19T16:33:05.244Z,16.00
2023-03-19T16:35:31.644Z,15.96
2023-03-19T16:37:57.853Z,15.87
2023-03-19T16:40:24.202Z,15.78
2023-03-19T16:42:50.610Z,15.73
2023-03-19T16:45:16.961Z,15.64
2023-03-19T16:47:43.407Z,15.53
2023-03-19T16:50:10.207Z,15.42
2023-03-19T16:52:36.611Z,15.35
2023-03-19T16:55:03.194Z,15.27
2023-03-19T16:57:34.336Z,15.26
2023-03-19T17:00:01.078Z,15.15
2023-03-19T17:02:27.450Z,15.04
2023-03-19T17:04:53.936Z,14.93
2023-03-19T17:07:20.175Z,14.86
2023-03-19T17:09:47.855Z,14.76
2023-03-19T17:12:14.189Z,14.68
2023-03-19T17:14:40.528Z,14.60
2023-03-19T17:17:06.872Z,14.51
2023-03-19T17:19:34.364Z,14.44
2023-03-19T17:22:00.722Z,14.38
2023-03-19T17:24:31.270Z,14.27
2023-03-19T17:27:01.143Z,14.20
2023-03-19T17:29:27.474Z,14.12
2023-03-19T17:31:53.998Z,14.10
2023-03-19T17:34:20.198Z,14.02
2023-03-19T17:36:46.554Z,13.97
2023-03-19T17:39:12.924Z,13.92
2023-03-19T17:41:39.337Z,13.86
2023-03-19T17:44:06.723Z,13.78
2023-03-19T17:46:32.111Z,13.69
2023-03-19T17:48:58.385Z,13.58
2023-03-19T17:51:24.774Z,13.46
2023-03-19T17:53:51.152Z,13.35
2023-03-19T17:56:17.567Z,13.24
2023-03-19T17:58:43.982Z,13.16
2023-03-19T18:01:10.343Z,13.09
2023-03-19T18:03:36.668Z,13.07
2023-03-19T18:06:03.037Z,12.93
2023-03-19T18:08:29.414Z,12.84
2023-03-19T18:10:55.804Z,12.75
2023-03-19T18:13:22.128Z,12.62
2023-03-19T18:15:48.507Z,12.49
2023-03-19T18:18:14.841Z,12.42
2023-03-19T18:20:41.221Z,12.42
2023-03-19T18:23:07.593Z,12.35
2023-03-19T18:25:33.928Z,12.31
2023-03-19T18:28:00.346Z,12.19
2023-03-19T18:30:26.675Z,12.14
2023-03-19T18:32:53.131Z,12.07
2023-03-19T18:35:19.513Z,12.01
2023-03-19T18:37:46.891Z,12.05
2023-03-19T18:40:13.236Z,12.01
2023-03-19T18:42:39.618Z,11.91
2023-03-19T18:45:05.986Z,11.79
2023-03-19T18:47:32.370Z,11.71
2023-03-19T18:49:58.788Z,11.55
2023-03-19T18:52:25.209Z,11.27
2023-03-19T18:54:51.848Z,11.20
2023-03-19T18:57:18.241Z,11.16
2023-03-19T18:59:44.604Z,11.21
2023-03-19T19:02:10.956Z,11.22
2023-03-19T19:04:37.392Z,11.10
2023-03-19T19:07:03.669Z,10.93
2023-03-19T19:09:30.066Z,10.85
2023-03-19T19:11:57.507Z,10.70
2023-03-19T19:14:22.711Z,10.51
2023-03-19T19:16:49.162Z,10.43
2023-03-19T19:19:15.449Z,10.37
2023-03-19T19:21:41.837Z,10.39
2023-03-19T19:24:08.218Z,10.47
2023-03-19T19:26:34.535Z,10.55
2023-03-19T19:29:00.879Z,10.59
2023-03-19T19:31:27.364Z,10.59
2023-03-19T19:33:53.666Z,10.63
2023-03-19T19:36:20.020Z,10.63
2023-03-19T19:38:46.629Z,10.57
2023-03-19T19:41:12.965Z,10.50
2023-03-19T19:43:39.289Z,10.45
2023-03-19T19:46:05.655Z,10.46
2023-03-19T19:48:32.009Z,10.45
2023-03-19T19:50:58.371Z,10.43
2023-03-19T19:53:24.967Z,10.38
2023-03-19T19:55:51.357Z,10.34
2023-03-19T19:58:17.683Z,10.28
2023-03-19T20:00:50.343Z,10.26
2023-03-19T20:03:10.422Z,10.21
2023-03-19T20:05:36.935Z,10.20
2023-03-19T20:08:03.290Z,10.15
2023-03-19T20:10:29.680Z,10.20
2023-03-19T20:12:56.082Z,10.19
2023-03-19T20:15:24.657Z,10.17
2023-03-19T20:17:50.984Z,10.14
2023-03-19T20:20:17.330Z,10.18
2023-03-19T20:22:43.675Z,10.21
2023-03-19T20:25:10.082Z,10.19
2023-03-19T20:27:36.443Z,10.16
2023-03-19T20:30:02.821Z,10.16
2023-03-19T20:32:29.686Z,10.13
2023-03-19T20:34:56.137Z,10.08
2023-03-19T20:37:22.490Z,10.01
2023-03-19T20:39:48.895Z,9.86
2023-03-19T20:42:15.277Z,9.75
2023-03-19T20:44:41.620Z,9.68
2023-03-19T20:47:07.982Z,9.61
2023-03-19T20:49:34.341Z,9.43
2023-03-19T20:52:00.928Z,9.36
2023-03-19T20:54:29.734Z,9.38
2023-03-19T20:56:56.088Z,9.44
2023-03-19T20:59:22.476Z,9.41
2023-03-19T21:01:48.931Z,9.42
2023-03-19T21:04:15.216Z,9.33
2023-03-19T21:06:52.521Z,9.25
2023-03-19T21:09:07.950Z,9.19
2023-03-19T21:11:34.302Z,9.17
2023-03-19T21:14:00.678Z,9.04
2023-03-19T21:16:27.076Z,9.01
2023-03-19T21:18:53.488Z,8.99
2023-03-19T21:21:19.863Z,8.91
2023-03-19T21:23:46.633Z,8.80
2023-03-19T21:26:12.999Z,8.78
2023-03-19T21:28:39.343Z,8.68
2023-03-19T21:31:05.739Z,8.63
2023-03-19T21:33:32.127Z,8.57
2023-03-19T21:35:58.472Z,8.54
2023-03-19T21:38:24.788Z,8.50
2023-03-19T21:40:51.196Z,8.48
2023-03-19T21:43:17.729Z,8.47
2023-03-19T21:45:44.073Z,8.45
2023-03-19T21:48:10.414Z,8.62
2023-03-19T21:50:37.770Z,8.73
2023-03-19T21:53:04.114Z,8.81
2023-03-19T21:55:30.503Z,8.68
2023-03-19T21:57:56.852Z,8.51
2023-03-19T22:00:23.248Z,8.50
2023-03-19T22:02:49.618Z,8.45
2023-03-19T22:05:15.932Z,8.26
2023-03-19T22:07:42.336Z,8.09
2023-03-19T22:10:08.723Z,8.03
2023-03-19T22:12:35.118Z,7.96
2023-03-19T22:15:01.512Z,7.92
2023-03-19T22:17:27.885Z,7.96
2023-03-19T22:19:54.321Z,7.97
2023-03-19T22:22:20.710Z,7.98
2023-03-19T22:24:47.082Z,7.96
2023-03-19T22:27:13.482Z,7.98
2023-03-19T22:29:39.802Z,7.90
2023-03-19T22:32:06.217Z,7.67
2023-03-19T22:34:32.555Z,7.70
2023-03-19T22:36:58.962Z,7.77
2023-03-19T22:39:25.321Z,7.80
2023-03-19T22:41:51.715Z,7.87
2023-03-19T22:44:18.049Z,7.85
2023-03-19T22:46:44.453Z,7.83
2023-03-19T22:49:10.814Z,7.76
2023-03-19T22:51:37.199Z,7.67
2023-03-19T22:54:03.561Z,7.60
2023-03-19T22:56:29.904Z,7.47
2023-03-19T22:58:56.233Z,7.47
2023-03-19T23:01:22.661Z,7.47
2023-03-19T23:03:48.929Z,7.43
2023-03-19T23:06:28.696Z,7.41
2023-03-19T23:08:41.660Z,7.44
2023-03-19T23:11:08.067Z,7.37
2023-03-19T23:13:34.445Z,7.29
2023-03-19T23:16:00.867Z,7.30
2023-03-19T23:18:27.269Z,7.26
2023-03-19T23:20:53.693Z,7.22
2023-03-19T23:23:19.985Z,7.21
2023-03-19T23:25:46.376Z,7.27
2023-03-19T23:28:12.690Z,7.29
2023-03-19T23:30:39.099Z,7.31
2023-03-19T23:33:05.419Z,7.28
2023-03-19T23:35:31.808Z,7.23
2023-03-19T23:37:58.141Z,7.19
2023-03-19T23:40:24.613Z,7.21
2023-03-19T23:42:50.948Z,7.27
2023-03-19T23:45:17.313Z,7.21
2023-03-19T23:47:43.666Z,7.23
2023-03-19T23:50:10.010Z,7.18
2023-03-19T23:52:36.344Z,7.11
2023-03-19T23:55:02.838Z,7.07
2023-03-19T23:57:29.127Z,7.01
2023-03-19T23:59:55.470Z,6.96
